sensor_id;sensor_type;location;lat;lon;timestamp;P1;durP1;ratioP1;P2;durP2;ratioP2
4909;SDS011;2470;49.868;8.660;2023-09-30T00:00:00;4.03;;;1.55;;
4909;SDS011;2470;49.868;8.660;2023-09-30T00:02:25;3.25;;;1.88;;
4909;SDS011;2470;49.868;8.660;2023-09-30T00:04:52;4.10;;;1.95;;
4909;SDS011;2470;49.868;8.660;2023-09-30T00:07:18;7.68;;;2.50;;
4909;SDS011;2470;49.868;8.660;2023-09-30T00:09:43;3.97;;;1.98;;
4909;SDS011;2470;49.868;8.660;2023-09-30T00:12:09;7.90;;;2.25;;
4909;SDS011;2470;49.868;8.660;2023-09-30T00:14:34;5.10;;;2.03;;
4909;SDS011;2470;49.868;8.660;2023-09-30T00:17:02;4.07;;;2.40;;
4909;SDS011;2470;49.868;8.660;2023-09-30T00:19:28;5.60;;;2.13;;
4909;SDS011;2470;49.868;8.660;2023-09-30T00:21:53;10.35;;;3.35;;
4909;SDS011;2470;49.868;8.660;2023-09-30T00:24:19;7.03;;;2.38;;
4909;SDS011;2470;49.868;8.660;2023-09-30T00:26:44;8.35;;;2.72;;
4909;SDS011;2470;49.868;8.660;2023-09-30T00:29:11;6.45;;;2.22;;
4909;SDS011;2470;49.868;8.660;2023-09-30T00:31:36;6.57;;;2.22;;
4909;SDS011;2470;49.868;8.660;2023-09-30T00:34:02;6.38;;;2.53;;
4909;SDS011;2470;49.868;8.660;2023-09-30T00:36:27;4.57;;;2.35;;
4909;SDS011;2470;49.868;8.660;2023-09-30T00:38:53;4.35;;;2.17;;
4909;SDS011;2470;49.868;8.660;2023-09-30T00:41:18;6.65;;;2.30;;
4909;SDS011;2470;49.868;8.660;2023-09-30T00:43:45;6.15;;;2.05;;
4909;SDS011;2470;49.868;8.660;2023-09-30T00:48:50;4.50;;;2.08;;
4909;SDS011;2470;49.868;8.660;2023-09-30T00:51:16;3.85;;;1.45;;
4909;SDS011;2470;49.868;8.660;2023-09-30T00:53:43;7.72;;;2.40;;
4909;SDS011;2470;49.868;8.660;2023-09-30T00:56:08;4.75;;;2.13;;
4909;SDS011;2470;49.868;8.660;2023-09-30T00:58:35;5.40;;;2.72;;
4909;SDS011;2470;49.868;8.660;2023-09-30T01:01:03;3.47;;;2.20;;
4909;SDS011;2470;49.868;8.660;2023-09-30T01:03:29;6.60;;;3.05;;
4909;SDS011;2470;49.868;8.660;2023-09-30T01:05:54;6.28;;;2.30;;
4909;SDS011;2470;49.868;8.660;2023-09-30T01:08:20;5.40;;;2.47;;
4909;SDS011;2470;49.868;8.660;2023-09-30T01:10:46;6.05;;;2.10;;
4909;SDS011;2470;49.868;8.660;2023-09-30T01:13:13;11.02;;;3.20;;
4909;SDS011;2470;49.868;8.660;2023-09-30T01:15:38;4.57;;;2.63;;
4909;SDS011;2470;49.868;8.660;2023-09-30T01:18:04;6.80;;;3.00;;
4909;SDS011;2470;49.868;8.660;2023-09-30T01:20:30;4.20;;;2.42;;
4909;SDS011;2470;49.868;8.660;2023-09-30T01:22:56;9.52;;;2.20;;
4909;SDS011;2470;49.868;8.660;2023-09-30T01:25:23;5.47;;;2.47;;
4909;SDS011;2470;49.868;8.660;2023-09-30T01:27:49;8.27;;;2.10;;
4909;SDS011;2470;49.868;8.660;2023-09-30T01:30:19;6.28;;;2.50;;
4909;SDS011;2470;49.868;8.660;2023-09-30T01:32:47;7.63;;;2.45;;
4909;SDS011;2470;49.868;8.660;2023-09-30T01:35:13;5.38;;;2.40;;
4909;SDS011;2470;49.868;8.660;2023-09-30T01:37:38;7.07;;;2.45;;
4909;SDS011;2470;49.868;8.660;2023-09-30T01:40:04;4.78;;;2.10;;
4909;SDS011;2470;49.868;8.660;2023-09-30T01:42:33;4.30;;;2.65;;
4909;SDS011;2470;49.868;8.660;2023-09-30T01:44:59;4.45;;;2.20;;
4909;SDS011;2470;49.868;8.660;2023-09-30T01:47:24;6.13;;;2.80;;
4909;SDS011;2470;49.868;8.660;2023-09-30T01:49:50;3.97;;;3.00;;
4909;SDS011;2470;49.868;8.660;2023-09-30T01:52:15;7.85;;;3.03;;
4909;SDS011;2470;49.868;8.660;2023-09-30T01:54:40;8.13;;;3.05;;
4909;SDS011;2470;49.868;8.660;2023-09-30T01:57:06;9.20;;;2.65;;
4909;SDS011;2470;49.868;8.660;2023-09-30T01:59:32;5.43;;;3.58;;
4909;SDS011;2470;49.868;8.660;2023-09-30T02:01:57;3.33;;;2.38;;
4909;SDS011;2470;49.868;8.660;2023-09-30T02:04:23;9.75;;;2.92;;
4909;SDS011;2470;49.868;8.660;2023-09-30T02:06:48;6.53;;;2.45;;
4909;SDS011;2470;49.868;8.660;2023-09-30T02:09:14;5.75;;;3.10;;
4909;SDS011;2470;49.868;8.660;2023-09-30T02:11:39;7.32;;;2.83;;
4909;SDS011;2470;49.868;8.660;2023-09-30T02:14:06;5.40;;;3.17;;
4909;SDS011;2470;49.868;8.660;2023-09-30T02:16:31;7.15;;;2.78;;
4909;SDS011;2470;49.868;8.660;2023-09-30T02:18:57;5.40;;;2.60;;
4909;SDS011;2470;49.868;8.660;2023-09-30T02:21:23;9.85;;;2.90;;
4909;SDS011;2470;49.868;8.660;2023-09-30T02:23:49;11.27;;;3.10;;
4909;SDS011;2470;49.868;8.660;2023-09-30T02:26:16;5.40;;;2.85;;
4909;SDS011;2470;49.868;8.660;2023-09-30T02:28:42;6.47;;;2.92;;
4909;SDS011;2470;49.868;8.660;2023-09-30T02:31:08;10.13;;;2.88;;
4909;SDS011;2470;49.868;8.660;2023-09-30T02:33:33;9.95;;;3.70;;
4909;SDS011;2470;49.868;8.660;2023-09-30T02:36:00;19.85;;;4.30;;
4909;SDS011;2470;49.868;8.660;2023-09-30T02:38:26;8.40;;;2.63;;
4909;SDS011;2470;49.868;8.660;2023-09-30T02:40:53;18.45;;;3.88;;
4909;SDS011;2470;49.868;8.660;2023-09-30T02:43:19;10.43;;;2.75;;
4909;SDS011;2470;49.868;8.660;2023-09-30T02:45:45;10.77;;;3.30;;
4909;SDS011;2470;49.868;8.660;2023-09-30T02:48:11;8.07;;;3.28;;
4909;SDS011;2470;49.868;8.660;2023-09-30T02:50:36;15.05;;;3.25;;
4909;SDS011;2470;49.868;8.660;2023-09-30T02:53:02;4.82;;;3.05;;
4909;SDS011;2470;49.868;8.660;2023-09-30T02:55:29;6.60;;;2.80;;
4909;SDS011;2470;49.868;8.660;2023-09-30T02:57:54;7.05;;;2.40;;
4909;SDS011;2470;49.868;8.660;2023-09-30T03:00:21;9.32;;;2.78;;
4909;SDS011;2470;49.868;8.660;2023-09-30T03:02:51;8.15;;;3.17;;
4909;SDS011;2470;49.868;8.660;2023-09-30T03:05:18;10.95;;;2.58;;
4909;SDS011;2470;49.868;8.660;2023-09-30T03:07:44;9.25;;;3.42;;
4909;SDS011;2470;49.868;8.660;2023-09-30T03:10:10;4.72;;;2.67;;
4909;SDS011;2470;49.868;8.660;2023-09-30T03:12:37;5.75;;;3.03;;
4909;SDS011;2470;49.868;8.660;2023-09-30T03:15:03;16.60;;;3.55;;
4909;SDS011;2470;49.868;8.660;2023-09-30T03:17:33;7.43;;;2.42;;
4909;SDS011;2470;49.868;8.660;2023-09-30T03:19:58;9.07;;;3.08;;
4909;SDS011;2470;49.868;8.660;2023-09-30T03:22:26;4.07;;;2.33;;
4909;SDS011;2470;49.868;8.660;2023-09-30T03:24:52;6.40;;;2.78;;
4909;SDS011;2470;49.868;8.660;2023-09-30T03:27:19;10.45;;;2.88;;
4909;SDS011;2470;49.868;8.660;2023-09-30T03:29:45;9.80;;;3.13;;
4909;SDS011;2470;49.868;8.660;2023-09-30T03:32:11;6.28;;;2.47;;
4909;SDS011;2470;49.868;8.660;2023-09-30T03:34:36;9.13;;;3.15;;
4909;SDS011;2470;49.868;8.660;2023-09-30T03:37:02;6.18;;;2.80;;
4909;SDS011;2470;49.868;8.660;2023-09-30T03:39:31;6.88;;;2.55;;
4909;SDS011;2470;49.868;8.660;2023-09-30T03:41:57;8.98;;;2.75;;
4909;SDS011;2470;49.868;8.660;2023-09-30T03:44:24;7.90;;;2.50;;
4909;SDS011;2470;49.868;8.660;2023-09-30T03:46:50;5.78;;;2.42;;
4909;SDS011;2470;49.868;8.660;2023-09-30T03:49:16;8.70;;;2.97;;
4909;SDS011;2470;49.868;8.660;2023-09-30T03:51:44;8.13;;;3.50;;
4909;SDS011;2470;49.868;8.660;2023-09-30T03:54:10;7.00;;;2.90;;
4909;SDS011;2470;49.868;8.660;2023-09-30T03:56:36;8.13;;;2.60;;
4909;SDS011;2470;49.868;8.660;2023-09-30T03:59:03;10.00;;;3.17;;
4909;SDS011;2470;49.868;8.660;2023-09-30T04:01:29;10.55;;;3.35;;
4909;SDS011;2470;49.868;8.660;2023-09-30T04:03:56;13.00;;;3.38;;
4909;SDS011;2470;49.868;8.660;2023-09-30T04:06:21;7.07;;;2.67;;
4909;SDS011;2470;49.868;8.660;2023-09-30T04:08:47;13.07;;;3.70;;
4909;SDS011;2470;49.868;8.660;2023-09-30T04:11:12;9.73;;;2.25;;
4909;SDS011;2470;49.868;8.660;2023-09-30T04:13:43;5.78;;;3.03;;
4909;SDS011;2470;49.868;8.660;2023-09-30T04:16:09;8.05;;;2.30;;
4909;SDS011;2470;49.868;8.660;2023-09-30T04:18:35;12.60;;;2.90;;
4909;SDS011;2470;49.868;8.660;2023-09-30T04:21:01;8.75;;;2.25;;
4909;SDS011;2470;49.868;8.660;2023-09-30T04:23:27;12.18;;;3.03;;
4909;SDS011;2470;49.868;8.660;2023-09-30T04:25:52;10.60;;;3.17;;
4909;SDS011;2470;49.868;8.660;2023-09-30T04:28:18;9.40;;;3.60;;
4909;SDS011;2470;49.868;8.660;2023-09-30T04:30:49;7.43;;;2.70;;
4909;SDS011;2470;49.868;8.660;2023-09-30T04:33:16;11.13;;;4.78;;
4909;SDS011;2470;49.868;8.660;2023-09-30T04:35:42;7.13;;;2.55;;
4909;SDS011;2470;49.868;8.660;2023-09-30T04:38:09;9.07;;;3.35;;
4909;SDS011;2470;49.868;8.660;2023-09-30T04:40:35;9.15;;;3.17;;
4909;SDS011;2470;49.868;8.660;2023-09-30T04:43:02;14.00;;;3.58;;
4909;SDS011;2470;49.868;8.660;2023-09-30T04:45:28;9.48;;;2.88;;
4909;SDS011;2470;49.868;8.660;2023-09-30T04:47:54;8.68;;;3.55;;
4909;SDS011;2470;49.868;8.660;2023-09-30T04:50:21;11.02;;;3.17;;
4909;SDS011;2470;49.868;8.660;2023-09-30T04:52:47;7.05;;;3.20;;
4909;SDS011;2470;49.868;8.660;2023-09-30T04:55:14;8.95;;;2.92;;
4909;SDS011;2470;49.868;8.660;2023-09-30T04:57:41;11.07;;;4.38;;
4909;SDS011;2470;49.868;8.660;2023-09-30T05:00:14;12.77;;;3.33;;
4909;SDS011;2470;49.868;8.660;2023-09-30T05:02:42;10.63;;;2.72;;
4909;SDS011;2470;49.868;8.660;2023-09-30T05:05:09;7.43;;;3.20;;
4909;SDS011;2470;49.868;8.660;2023-09-30T05:07:35;7.60;;;3.05;;
4909;SDS011;2470;49.868;8.660;2023-09-30T05:10:01;6.10;;;3.13;;
4909;SDS011;2470;49.868;8.660;2023-09-30T05:12:30;15.70;;;3.80;;
4909;SDS011;2470;49.868;8.660;2023-09-30T05:14:56;10.77;;;3.65;;
4909;SDS011;2470;49.868;8.660;2023-09-30T05:17:22;11.55;;;3.25;;
4909;SDS011;2470;49.868;8.660;2023-09-30T05:19:47;10.20;;;2.90;;
4909;SDS011;2470;49.868;8.660;2023-09-30T05:22:13;14.98;;;3.42;;
4909;SDS011;2470;49.868;8.660;2023-09-30T05:24:38;7.93;;;3.33;;
4909;SDS011;2470;49.868;8.660;2023-09-30T05:27:04;13.18;;;3.33;;
4909;SDS011;2470;49.868;8.660;2023-09-30T05:29:29;7.50;;;3.30;;
4909;SDS011;2470;49.868;8.660;2023-09-30T05:31:58;7.22;;;3.50;;
4909;SDS011;2470;49.868;8.660;2023-09-30T05:34:23;13.27;;;3.58;;
4909;SDS011;2470;49.868;8.660;2023-09-30T05:36:49;26.23;;;4.93;;
4909;SDS011;2470;49.868;8.660;2023-09-30T05:39:16;7.57;;;3.08;;
4909;SDS011;2470;49.868;8.660;2023-09-30T05:41:44;13.68;;;3.30;;
4909;SDS011;2470;49.868;8.660;2023-09-30T05:44:11;12.90;;;4.32;;
4909;SDS011;2470;49.868;8.660;2023-09-30T05:46:39;7.70;;;3.13;;
4909;SDS011;2470;49.868;8.660;2023-09-30T05:49:04;8.18;;;3.53;;
4909;SDS011;2470;49.868;8.660;2023-09-30T05:51:34;11.32;;;4.13;;
4909;SDS011;2470;49.868;8.660;2023-09-30T05:54:00;9.85;;;4.25;;
4909;SDS011;2470;49.868;8.660;2023-09-30T05:56:26;9.55;;;3.40;;
4909;SDS011;2470;49.868;8.660;2023-09-30T05:58:52;10.23;;;3.65;;
4909;SDS011;2470;49.868;8.660;2023-09-30T06:01:17;8.27;;;4.68;;
4909;SDS011;2470;49.868;8.660;2023-09-30T06:03:44;8.23;;;3.40;;
4909;SDS011;2470;49.868;8.660;2023-09-30T06:06:13;12.10;;;3.90;;
4909;SDS011;2470;49.868;8.660;2023-09-30T06:08:41;11.20;;;3.13;;
4909;SDS011;2470;49.868;8.660;2023-09-30T06:11:16;5.85;;;3.22;;
4909;SDS011;2470;49.868;8.660;2023-09-30T06:13:49;15.38;;;3.60;;
4909;SDS011;2470;49.868;8.660;2023-09-30T06:16:20;7.95;;;3.70;;
4909;SDS011;2470;49.868;8.660;2023-09-30T06:18:46;6.32;;;3.30;;
4909;SDS011;2470;49.868;8.660;2023-09-30T06:21:15;25.55;;;5.93;;
4909;SDS011;2470;49.868;8.660;2023-09-30T06:23:45;12.10;;;4.00;;
4909;SDS011;2470;49.868;8.660;2023-09-30T06:26:13;20.92;;;4.30;;
4909;SDS011;2470;49.868;8.660;2023-09-30T06:28:38;6.50;;;3.08;;
4909;SDS011;2470;49.868;8.660;2023-09-30T06:31:07;11.30;;;3.85;;
4909;SDS011;2470;49.868;8.660;2023-09-30T06:33:33;11.45;;;3.58;;
4909;SDS011;2470;49.868;8.660;2023-09-30T06:36:07;10.82;;;4.07;;
4909;SDS011;2470;49.868;8.660;2023-09-30T06:38:34;21.85;;;5.20;;
4909;SDS011;2470;49.868;8.660;2023-09-30T06:40:59;6.18;;;3.30;;
4909;SDS011;2470;49.868;8.660;2023-09-30T06:43:26;10.57;;;2.85;;
4909;SDS011;2470;49.868;8.660;2023-09-30T06:45:52;8.77;;;3.40;;
4909;SDS011;2470;49.868;8.660;2023-09-30T06:48:19;11.23;;;3.65;;
4909;SDS011;2470;49.868;8.660;2023-09-30T06:50:45;10.73;;;3.47;;
4909;SDS011;2470;49.868;8.660;2023-09-30T06:53:13;10.20;;;3.42;;
4909;SDS011;2470;49.868;8.660;2023-09-30T06:55:42;12.40;;;3.20;;
4909;SDS011;2470;49.868;8.660;2023-09-30T06:58:10;9.15;;;4.30;;
4909;SDS011;2470;49.868;8.660;2023-09-30T07:00:37;11.13;;;3.65;;
4909;SDS011;2470;49.868;8.660;2023-09-30T07:03:03;12.63;;;5.10;;
4909;SDS011;2470;49.868;8.660;2023-09-30T07:05:29;10.85;;;3.53;;
4909;SDS011;2470;49.868;8.660;2023-09-30T07:07:54;10.27;;;4.32;;
4909;SDS011;2470;49.868;8.660;2023-09-30T07:10:20;7.28;;;4.07;;
4909;SDS011;2470;49.868;8.660;2023-09-30T07:12:45;8.98;;;4.13;;
4909;SDS011;2470;49.868;8.660;2023-09-30T07:15:11;12.95;;;4.63;;
4909;SDS011;2470;49.868;8.660;2023-09-30T07:17:38;8.07;;;3.38;;
4909;SDS011;2470;49.868;8.660;2023-09-30T07:20:04;9.93;;;4.00;;
4909;SDS011;2470;49.868;8.660;2023-09-30T07:22:30;8.50;;;3.75;;
4909;SDS011;2470;49.868;8.660;2023-09-30T07:24:56;6.90;;;3.10;;
4909;SDS011;2470;49.868;8.660;2023-09-30T07:27:23;8.65;;;3.15;;
4909;SDS011;2470;49.868;8.660;2023-09-30T07:29:49;14.02;;;4.68;;
4909;SDS011;2470;49.868;8.660;2023-09-30T07:32:14;15.02;;;3.53;;
4909;SDS011;2470;49.868;8.660;2023-09-30T07:34:40;10.60;;;4.13;;
4909;SDS011;2470;49.868;8.660;2023-09-30T07:37:05;8.10;;;3.28;;
4909;SDS011;2470;49.868;8.660;2023-09-30T07:39:31;9.15;;;3.38;;
4909;SDS011;2470;49.868;8.660;2023-09-30T07:41:56;7.90;;;3.28;;
4909;SDS011;2470;49.868;8.660;2023-09-30T07:44:22;9.57;;;4.10;;
4909;SDS011;2470;49.868;8.660;2023-09-30T07:46:48;17.52;;;4.40;;
4909;SDS011;2470;49.868;8.660;2023-09-30T07:49:13;9.77;;;3.58;;
4909;SDS011;2470;49.868;8.660;2023-09-30T07:51:39;9.73;;;3.78;;
4909;SDS011;2470;49.868;8.660;2023-09-30T07:54:05;16.40;;;2.88;;
4909;SDS011;2470;49.868;8.660;2023-09-30T07:56:31;15.80;;;3.35;;
4909;SDS011;2470;49.868;8.660;2023-09-30T07:58:57;11.65;;;4.63;;
4909;SDS011;2470;49.868;8.660;2023-09-30T08:01:22;7.43;;;3.72;;
4909;SDS011;2470;49.868;8.660;2023-09-30T08:03:48;7.05;;;3.90;;
4909;SDS011;2470;49.868;8.660;2023-09-30T08:06:14;16.90;;;4.75;;
4909;SDS011;2470;49.868;8.660;2023-09-30T08:08:39;12.55;;;3.80;;
4909;SDS011;2470;49.868;8.660;2023-09-30T08:11:05;6.43;;;3.63;;
4909;SDS011;2470;49.868;8.660;2023-09-30T08:13:31;10.27;;;4.32;;
4909;SDS011;2470;49.868;8.660;2023-09-30T08:15:57;10.70;;;3.83;;
4909;SDS011;2470;49.868;8.660;2023-09-30T08:18:23;10.40;;;3.92;;
4909;SDS011;2470;49.868;8.660;2023-09-30T08:20:49;9.75;;;4.47;;
4909;SDS011;2470;49.868;8.660;2023-09-30T08:23:15;12.63;;;4.57;;
4909;SDS011;2470;49.868;8.660;2023-09-30T08:25:41;9.07;;;3.75;;
4909;SDS011;2470;49.868;8.660;2023-09-30T08:28:06;9.50;;;4.28;;
4909;SDS011;2470;49.868;8.660;2023-09-30T08:30:34;14.60;;;4.50;;
4909;SDS011;2470;49.868;8.660;2023-09-30T08:33:03;14.60;;;3.92;;
4909;SDS011;2470;49.868;8.660;2023-09-30T08:35:29;12.13;;;3.00;;
4909;SDS011;2470;49.868;8.660;2023-09-30T08:37:55;10.93;;;4.20;;
4909;SDS011;2470;49.868;8.660;2023-09-30T08:40:21;10.45;;;3.72;;
4909;SDS011;2470;49.868;8.660;2023-09-30T08:42:53;6.13;;;3.33;;
4909;SDS011;2470;49.868;8.660;2023-09-30T08:45:19;10.20;;;4.03;;
4909;SDS011;2470;49.868;8.660;2023-09-30T08:47:45;10.05;;;3.50;;
4909;SDS011;2470;49.868;8.660;2023-09-30T08:50:11;8.82;;;3.65;;
4909;SDS011;2470;49.868;8.660;2023-09-30T08:52:40;7.90;;;3.92;;
4909;SDS011;2470;49.868;8.660;2023-09-30T08:55:07;11.88;;;3.45;;
4909;SDS011;2470;49.868;8.660;2023-09-30T08:57:35;6.65;;;3.22;;
4909;SDS011;2470;49.868;8.660;2023-09-30T09:00:04;13.20;;;4.38;;
4909;SDS011;2470;49.868;8.660;2023-09-30T09:02:32;9.80;;;3.20;;
4909;SDS011;2470;49.868;8.660;2023-09-30T09:04:59;6.45;;;3.47;;
4909;SDS011;2470;49.868;8.660;2023-09-30T09:07:26;13.00;;;3.45;;
4909;SDS011;2470;49.868;8.660;2023-09-30T09:10:10;7.35;;;3.17;;
4909;SDS011;2470;49.868;8.660;2023-09-30T09:12:38;11.82;;;3.72;;
4909;SDS011;2470;49.868;8.660;2023-09-30T09:15:05;9.25;;;3.55;;
4909;SDS011;2470;49.868;8.660;2023-09-30T09:17:44;10.43;;;3.47;;
4909;SDS011;2470;49.868;8.660;2023-09-30T09:20:11;7.82;;;2.90;;
4909;SDS011;2470;49.868;8.660;2023-09-30T09:22:44;8.63;;;3.13;;
4909;SDS011;2470;49.868;8.660;2023-09-30T09:25:11;11.90;;;3.38;;
4909;SDS011;2470;49.868;8.660;2023-09-30T09:27:36;20.17;;;4.07;;
4909;SDS011;2470;49.868;8.660;2023-09-30T09:30:13;13.25;;;3.05;;
4909;SDS011;2470;49.868;8.660;2023-09-30T09:33:03;7.43;;;2.88;;
4909;SDS011;2470;49.868;8.660;2023-09-30T09:35:33;10.82;;;2.85;;
4909;SDS011;2470;49.868;8.660;2023-09-30T09:38:03;7.45;;;2.70;;
4909;SDS011;2470;49.868;8.660;2023-09-30T09:40:30;12.05;;;3.33;;
4909;SDS011;2470;49.868;8.660;2023-09-30T09:42:58;4.47;;;2.10;;
4909;SDS011;2470;49.868;8.660;2023-09-30T09:45:25;7.45;;;2.70;;
4909;SDS011;2470;49.868;8.660;2023-09-30T09:47:52;11.57;;;3.10;;
4909;SDS011;2470;49.868;8.660;2023-09-30T09:50:19;6.13;;;3.00;;
4909;SDS011;2470;49.868;8.660;2023-09-30T09:52:47;5.47;;;2.55;;
4909;SDS011;2470;49.868;8.660;2023-09-30T09:55:16;3.72;;;2.33;;
4909;SDS011;2470;49.868;8.660;2023-09-30T09:57:43;9.02;;;3.03;;
4909;SDS011;2470;49.868;8.660;2023-09-30T10:00:13;5.32;;;2.95;;
4909;SDS011;2470;49.868;8.660;2023-09-30T10:02:41;6.80;;;2.33;;
4909;SDS011;2470;49.868;8.660;2023-09-30T10:05:07;9.10;;;2.67;;
4909;SDS011;2470;49.868;8.660;2023-09-30T10:07:35;6.15;;;2.90;;
4909;SDS011;2470;49.868;8.660;2023-09-30T10:10:05;11.15;;;3.47;;
4909;SDS011;2470;49.868;8.660;2023-09-30T10:12:38;5.68;;;2.63;;
4909;SDS011;2470;49.868;8.660;2023-09-30T10:18:15;6.00;;;2.38;;
4909;SDS011;2470;49.868;8.660;2023-09-30T10:20:41;8.85;;;2.83;;
4909;SDS011;2470;49.868;8.660;2023-09-30T10:23:28;7.20;;;3.10;;
4909;SDS011;2470;49.868;8.660;2023-09-30T10:28:33;5.47;;;2.95;;
4909;SDS011;2470;49.868;8.660;2023-09-30T10:31:21;6.78;;;2.80;;
4909;SDS011;2470;49.868;8.660;2023-09-30T10:36:28;8.68;;;2.92;;
4909;SDS011;2470;49.868;8.660;2023-09-30T10:38:55;7.60;;;2.55;;
4909;SDS011;2470;49.868;8.660;2023-09-30T10:46:50;8.43;;;2.50;;
4909;SDS011;2470;49.868;8.660;2023-09-30T10:49:17;7.35;;;2.53;;
4909;SDS011;2470;49.868;8.660;2023-09-30T10:51:57;5.28;;;2.85;;
4909;SDS011;2470;49.868;8.660;2023-09-30T10:54:27;5.28;;;3.00;;
4909;SDS011;2470;49.868;8.660;2023-09-30T10:56:56;5.00;;;2.22;;
4909;SDS011;2470;49.868;8.660;2023-09-30T10:59:26;9.82;;;3.25;;
4909;SDS011;2470;49.868;8.660;2023-09-30T11:01:56;9.90;;;3.15;;
4909;SDS011;2470;49.868;8.660;2023-09-30T11:04:22;6.25;;;2.00;;
4909;SDS011;2470;49.868;8.660;2023-09-30T11:06:47;12.75;;;2.70;;
4909;SDS011;2470;49.868;8.660;2023-09-30T11:09:18;8.90;;;3.13;;
4909;SDS011;2470;49.868;8.660;2023-09-30T11:11:47;8.05;;;3.58;;
4909;SDS011;2470;49.868;8.660;2023-09-30T11:14:18;5.07;;;2.38;;
4909;SDS011;2470;49.868;8.660;2023-09-30T11:16:44;9.95;;;2.30;;
4909;SDS011;2470;49.868;8.660;2023-09-30T11:19:13;9.55;;;2.28;;
4909;SDS011;2470;49.868;8.660;2023-09-30T11:21:42;9.50;;;3.20;;
4909;SDS011;2470;49.868;8.660;2023-09-30T11:24:08;5.82;;;2.58;;
4909;SDS011;2470;49.868;8.660;2023-09-30T11:26:34;5.88;;;2.65;;
4909;SDS011;2470;49.868;8.660;2023-09-30T11:29:07;6.32;;;2.33;;
4909;SDS011;2470;49.868;8.660;2023-09-30T11:31:41;5.38;;;2.40;;
4909;SDS011;2470;49.868;8.660;2023-09-30T11:34:13;14.35;;;3.08;;
4909;SDS011;2470;49.868;8.660;2023-09-30T11:36:41;5.78;;;2.65;;
4909;SDS011;2470;49.868;8.660;2023-09-30T11:39:24;7.22;;;2.53;;
4909;SDS011;2470;49.868;8.660;2023-09-30T11:41:51;4.43;;;2.38;;
4909;SDS011;2470;49.868;8.660;2023-09-30T11:44:17;11.27;;;2.63;;
4909;SDS011;2470;49.868;8.660;2023-09-30T11:47:02;8.45;;;3.20;;
4909;SDS011;2470;49.868;8.660;2023-09-30T11:49:34;4.63;;;2.10;;
4909;SDS011;2470;49.868;8.660;2023-09-30T11:52:09;6.35;;;2.50;;
4909;SDS011;2470;49.868;8.660;2023-09-30T11:54:38;7.47;;;2.88;;
4909;SDS011;2470;49.868;8.660;2023-09-30T11:57:10;5.90;;;2.53;;
4909;SDS011;2470;49.868;8.660;2023-09-30T11:59:37;4.07;;;2.63;;
4909;SDS011;2470;49.868;8.660;2023-09-30T12:02:04;6.20;;;2.38;;
4909;SDS011;2470;49.868;8.660;2023-09-30T12:04:36;6.50;;;2.88;;
4909;SDS011;2470;49.868;8.660;2023-09-30T12:07:02;9.05;;;3.38;;
4909;SDS011;2470;49.868;8.660;2023-09-30T12:09:28;4.68;;;2.42;;
4909;SDS011;2470;49.868;8.660;2023-09-30T12:11:55;6.97;;;2.58;;
4909;SDS011;2470;49.868;8.660;2023-09-30T12:14:22;7.70;;;2.65;;
4909;SDS011;2470;49.868;8.660;2023-09-30T12:16:49;4.07;;;2.05;;
4909;SDS011;2470;49.868;8.660;2023-09-30T12:19:15;3.80;;;2.20;;
4909;SDS011;2470;49.868;8.660;2023-09-30T12:21:43;7.28;;;2.45;;
4909;SDS011;2470;49.868;8.660;2023-09-30T12:24:11;5.90;;;2.22;;
4909;SDS011;2470;49.868;8.660;2023-09-30T12:26:41;4.43;;;2.20;;
4909;SDS011;2470;49.868;8.660;2023-09-30T12:29:13;4.40;;;2.22;;
4909;SDS011;2470;49.868;8.660;2023-09-30T12:31:42;6.82;;;2.25;;
4909;SDS011;2470;49.868;8.660;2023-09-30T12:34:14;3.90;;;2.17;;
4909;SDS011;2470;49.868;8.660;2023-09-30T12:36:40;4.38;;;2.20;;
4909;SDS011;2470;49.868;8.660;2023-09-30T12:39:06;2.55;;;2.33;;
4909;SDS011;2470;49.868;8.660;2023-09-30T12:41:39;6.57;;;1.73;;
4909;SDS011;2470;49.868;8.660;2023-09-30T12:44:09;4.05;;;2.25;;
4909;SDS011;2470;49.868;8.660;2023-09-30T12:46:36;5.47;;;2.38;;
4909;SDS011;2470;49.868;8.660;2023-09-30T12:49:08;3.83;;;2.45;;
4909;SDS011;2470;49.868;8.660;2023-09-30T12:51:34;2.97;;;2.05;;
4909;SDS011;2470;49.868;8.660;2023-09-30T12:54:01;2.03;;;1.70;;
4909;SDS011;2470;49.868;8.660;2023-09-30T12:56:27;4.50;;;2.38;;
4909;SDS011;2470;49.868;8.660;2023-09-30T12:58:56;3.63;;;2.08;;
4909;SDS011;2470;49.868;8.660;2023-09-30T13:01:22;2.35;;;1.65;;
4909;SDS011;2470;49.868;8.660;2023-09-30T13:03:47;5.22;;;2.20;;
4909;SDS011;2470;49.868;8.660;2023-09-30T13:06:13;5.07;;;2.22;;
4909;SDS011;2470;49.868;8.660;2023-09-30T13:08:41;3.30;;;1.70;;
4909;SDS011;2470;49.868;8.660;2023-09-30T13:11:07;4.07;;;1.90;;
4909;SDS011;2470;49.868;8.660;2023-09-30T13:13:33;2.17;;;1.98;;
4909;SDS011;2470;49.868;8.660;2023-09-30T13:16:00;4.03;;;2.30;;
4909;SDS011;2470;49.868;8.660;2023-09-30T13:18:25;2.22;;;1.70;;
4909;SDS011;2470;49.868;8.660;2023-09-30T13:20:51;3.20;;;1.80;;
4909;SDS011;2470;49.868;8.660;2023-09-30T13:23:19;2.42;;;1.60;;
4909;SDS011;2470;49.868;8.660;2023-09-30T13:25:45;3.30;;;2.10;;
4909;SDS011;2470;49.868;8.660;2023-09-30T13:28:11;3.72;;;1.73;;
4909;SDS011;2470;49.868;8.660;2023-09-30T13:30:38;8.27;;;1.80;;
4909;SDS011;2470;49.868;8.660;2023-09-30T13:33:04;3.67;;;2.63;;
4909;SDS011;2470;49.868;8.660;2023-09-30T13:35:30;5.18;;;2.47;;
4909;SDS011;2470;49.868;8.660;2023-09-30T13:37:56;2.60;;;2.05;;
4909;SDS011;2470;49.868;8.660;2023-09-30T13:40:22;3.03;;;2.17;;
4909;SDS011;2470;49.868;8.660;2023-09-30T13:42:48;3.97;;;2.03;;
4909;SDS011;2470;49.868;8.660;2023-09-30T13:45:14;2.17;;;1.60;;
4909;SDS011;2470;49.868;8.660;2023-09-30T13:47:42;4.07;;;1.50;;
4909;SDS011;2470;49.868;8.660;2023-09-30T13:50:07;2.45;;;1.77;;
4909;SDS011;2470;49.868;8.660;2023-09-30T13:52:34;3.40;;;2.40;;
4909;SDS011;2470;49.868;8.660;2023-09-30T13:54:59;5.28;;;1.95;;
4909;SDS011;2470;49.868;8.660;2023-09-30T13:57:25;3.53;;;2.08;;
4909;SDS011;2470;49.868;8.660;2023-09-30T13:59:51;5.22;;;2.45;;
4909;SDS011;2470;49.868;8.660;2023-09-30T14:02:16;4.07;;;2.47;;
4909;SDS011;2470;49.868;8.660;2023-09-30T14:04:42;3.67;;;2.30;;
4909;SDS011;2470;49.868;8.660;2023-09-30T14:07:08;3.60;;;2.55;;
4909;SDS011;2470;49.868;8.660;2023-09-30T14:09:34;4.15;;;2.22;;
4909;SDS011;2470;49.868;8.660;2023-09-30T14:12:00;6.53;;;2.58;;
4909;SDS011;2470;49.868;8.660;2023-09-30T14:14:26;3.10;;;2.33;;
4909;SDS011;2470;49.868;8.660;2023-09-30T14:16:51;5.72;;;3.35;;
4909;SDS011;2470;49.868;8.660;2023-09-30T14:19:17;7.10;;;2.80;;
4909;SDS011;2470;49.868;8.660;2023-09-30T14:21:43;5.88;;;2.70;;
4909;SDS011;2470;49.868;8.660;2023-09-30T14:24:08;11.77;;;3.28;;
4909;SDS011;2470;49.868;8.660;2023-09-30T14:26:34;5.15;;;2.70;;
4909;SDS011;2470;49.868;8.660;2023-09-30T14:29:01;4.75;;;2.30;;
4909;SDS011;2470;49.868;8.660;2023-09-30T14:31:26;6.30;;;2.33;;
4909;SDS011;2470;49.868;8.660;2023-09-30T14:33:52;7.15;;;2.92;;
4909;SDS011;2470;49.868;8.660;2023-09-30T14:36:17;6.68;;;2.95;;
4909;SDS011;2470;49.868;8.660;2023-09-30T14:38:44;5.90;;;2.38;;
4909;SDS011;2470;49.868;8.660;2023-09-30T14:41:10;7.22;;;3.13;;
4909;SDS011;2470;49.868;8.660;2023-09-30T14:43:37;4.85;;;2.53;;
4909;SDS011;2470;49.868;8.660;2023-09-30T14:46:03;9.05;;;2.75;;
4909;SDS011;2470;49.868;8.660;2023-09-30T14:48:29;7.30;;;2.60;;
4909;SDS011;2470;49.868;8.660;2023-09-30T14:50:55;19.85;;;2.85;;
4909;SDS011;2470;49.868;8.660;2023-09-30T14:53:21;4.53;;;2.70;;
4909;SDS011;2470;49.868;8.660;2023-09-30T14:55:47;6.72;;;2.53;;
4909;SDS011;2470;49.868;8.660;2023-09-30T14:58:13;8.02;;;2.95;;
4909;SDS011;2470;49.868;8.660;2023-09-30T15:00:38;6.30;;;2.60;;
4909;SDS011;2470;49.868;8.660;2023-09-30T15:03:04;9.88;;;3.15;;
4909;SDS011;2470;49.868;8.660;2023-09-30T15:05:30;7.28;;;2.95;;
4909;SDS011;2470;49.868;8.660;2023-09-30T15:07:56;5.95;;;2.88;;
4909;SDS011;2470;49.868;8.660;2023-09-30T15:10:22;7.00;;;3.10;;
4909;SDS011;2470;49.868;8.660;2023-09-30T15:12:47;10.13;;;3.05;;
4909;SDS011;2470;49.868;8.660;2023-09-30T15:15:13;9.90;;;3.28;;
4909;SDS011;2470;49.868;8.660;2023-09-30T15:17:39;6.00;;;2.90;;
4909;SDS011;2470;49.868;8.660;2023-09-30T15:20:04;3.65;;;2.65;;
4909;SDS011;2470;49.868;8.660;2023-09-30T15:22:31;6.28;;;2.70;;
4909;SDS011;2470;49.868;8.660;2023-09-30T15:24:57;4.10;;;2.15;;
4909;SDS011;2470;49.868;8.660;2023-09-30T15:27:23;14.18;;;3.17;;